createdAt,value
2023-03-21T00:01:55.364Z,11.36
2023-03-21T00:04:28.365Z,11.42
2023-03-21T00:06:56.991Z,11.45
2023-03-21T00:09:24.594Z,11.49
2023-03-21T00:11:51.867Z,11.51
2023-03-21T00:14:20.295Z,11.54
2023-03-21T00:16:52.185Z,11.51
2023-03-21T00:19:21.129Z,11.54
2023-03-21T00:22:08.746Z,11.46
2023-03-21T00:24:37.850Z,11.46
2023-03-21T00:27:30.257Z,11.41
2023-03-21T00:29:53.674Z,11.40
2023-03-21T00:32:22.170Z,11.37
2023-03-21T00:35:34.750Z,11.39
2023-03-21T00:37:37.607Z,11.40
2023-03-21T00:40:23.078Z,11.28
2023-03-21T00:42:53.001Z,11.26
2023-03-21T00:45:22.100Z,11.28
2023-03-21T00:47:49.893Z,11.24
2023-03-21T00:50:18.227Z,11.25
2023-03-21T00:52:45.619Z,11.25
2023-03-21T00:55:19.889Z,11.12
2023-03-21T00:57:50.200Z,11.19
2023-03-21T01:00:23.990Z,11.17
2023-03-21T01:03:04.262Z,11.16
2023-03-21T01:06:01.195Z,11.03
2023-03-21T01:08:33.225Z,10.92
2023-03-21T01:11:17.864Z,10.89
2023-03-21T01:13:53.785Z,10.83
2023-03-21T01:16:25.907Z,10.86
2023-03-21T01:18:54.294Z,10.80
2023-03-21T01:21:22.319Z,10.80
2023-03-21T01:23:49.617Z,10.85
2023-03-21T01:26:17.268Z,10.83
2023-03-21T01:28:45.574Z,10.72
2023-03-21T01:31:16.941Z,10.73
2023-03-21T01:33:44.810Z,10.73
2023-03-21T01:36:24.510Z,10.74
2023-03-21T01:38:53.189Z,10.84
2023-03-21T01:41:44.129Z,10.89
2023-03-21T01:44:19.735Z,10.81
2023-03-21T01:47:09.667Z,10.82
2023-03-21T01:49:48.011Z,10.87
2023-03-21T01:52:33.843Z,10.84
2023-03-21T01:55:11.944Z,10.87
2023-03-21T01:58:04.009Z,10.88
2023-03-21T02:00:34.077Z,10.88
2023-03-21T02:03:16.979Z,10.84
2023-03-21T02:06:08.622Z,10.79
2023-03-21T02:08:39.499Z,10.84
2023-03-21T02:11:10.234Z,10.88
2023-03-21T02:13:38.265Z,10.88
2023-03-21T02:16:52.715Z,10.84
2023-03-21T02:20:15.826Z,10.85
2023-03-21T02:23:23.188Z,10.90
2023-03-21T02:26:41.959Z,10.85
2023-03-21T02:29:38.267Z,10.83
2023-03-21T02:32:40.559Z,10.82
2023-03-21T02:36:00.600Z,10.73
2023-03-21T02:38:43.730Z,10.71
2023-03-21T02:41:27.475Z,10.72
2023-03-21T02:44:12.953Z,10.58
2023-03-21T02:47:05.971Z,10.52
2023-03-21T02:50:07.433Z,10.48
2023-03-21T02:52:39.851Z,10.52
2023-03-21T02:55:27.304Z,10.40
2023-03-21T02:58:06.958Z,10.46
2023-03-21T03:00:42.962Z,10.50
2023-03-21T03:03:20.957Z,10.48
2023-03-21T03:06:02.636Z,10.55
2023-03-21T03:09:01.112Z,10.56
2023-03-21T03:11:37.057Z,10.56
2023-03-21T03:14:53.170Z,10.55
2023-03-21T03:17:42.494Z,10.47
2023-03-21T03:20:39.129Z,10.43
2023-03-21T03:23:35.865Z,10.36
2023-03-21T03:26:09.220Z,10.41
2023-03-21T03:28:45.023Z,10.39
2023-03-21T03:31:21.997Z,10.33
2023-03-21T03:33:54.877Z,10.36
2023-03-21T03:36:32.818Z,10.30
2023-03-21T03:39:09.076Z,10.31
2023-03-21T03:42:06.066Z,10.32
2023-03-21T03:44:33.550Z,10.36
2023-03-21T03:47:29.855Z,10.25
2023-03-21T03:50:20.757Z,10.22
2023-03-21T03:53:07.098Z,10.19
2023-03-21T03:55:38.886Z,10.13
2023-03-21T03:58:13.194Z,10.18
2023-03-21T04:00:49.516Z,10.23
2023-03-21T04:03:16.899Z,10.20
2023-03-21T04:05:47.783Z,10.20
2023-03-21T04:08:16.758Z,10.25
2023-03-21T04:10:44.762Z,10.16
2023-03-21T04:13:12.081Z,10.27
2023-03-21T04:15:39.674Z,10.24
2023-03-21T04:18:07.241Z,10.35
2023-03-21T04:20:37.269Z,10.21
2023-03-21T04:23:06.098Z,10.17
2023-03-21T04:25:44.686Z,10.06
2023-03-21T04:28:15.121Z,10.03
2023-03-21T04:30:52.030Z,10.08
2023-03-21T04:33:28.264Z,10.09
2023-03-21T04:35:56.398Z,10.09
2023-03-21T04:38:25.211Z,10.03
2023-03-21T04:40:52.951Z,10.06
2023-03-21T04:43:20.884Z,10.10
2023-03-21T04:45:48.394Z,10.14
2023-03-21T04:48:16.212Z,10.15
2023-03-21T04:50:45.446Z,10.23
2023-03-21T04:53:13.188Z,10.14
2023-03-21T04:55:40.706Z,10.17
2023-03-21T04:58:08.540Z,10.10
2023-03-21T05:00:39.141Z,10.17
2023-03-21T05:03:09.231Z,10.19
2023-03-21T05:05:38.627Z,10.14
2023-03-21T05:08:06.542Z,10.17
2023-03-21T05:10:34.446Z,10.13
2023-03-21T05:13:01.707Z,10.15
2023-03-21T05:15:29.321Z,10.16
2023-03-21T05:17:58.713Z,10.11
2023-03-21T05:20:26.512Z,10.09
2023-03-21T05:22:53.761Z,10.20
2023-03-21T05:25:35.421Z,10.03
2023-03-21T05:28:02.855Z,10.05
2023-03-21T05:30:31.051Z,10.09
2023-03-21T05:32:58.562Z,10.11
2023-03-21T05:35:27.041Z,10.14
2023-03-21T05:37:54.402Z,10.13
2023-03-21T05:40:22.384Z,10.23
2023-03-21T05:42:49.642Z,10.33
2023-03-21T05:45:17.345Z,10.46
2023-03-21T05:47:44.638Z,10.64
2023-03-21T05:50:13.726Z,10.73
2023-03-21T05:52:41.092Z,10.83
2023-03-21T05:55:08.931Z,10.85
2023-03-21T05:57:39.321Z,10.93
2023-03-21T06:00:09.069Z,10.84
2023-03-21T06:02:36.431Z,10.92
2023-03-21T06:05:04.413Z,10.92
2023-03-21T06:07:32.057Z,10.97
2023-03-21T06:09:59.637Z,10.94
2023-03-21T06:12:26.986Z,11.04
2023-03-21T06:14:54.601Z,11.22
2023-03-21T06:17:22.177Z,11.38
2023-03-21T06:19:49.869Z,11.49
2023-03-21T06:22:17.085Z,11.43
2023-03-21T06:24:44.684Z,11.36
2023-03-21T06:27:12.273Z,11.36
2023-03-21T06:29:39.990Z,11.39
2023-03-21T06:32:07.739Z,11.31
2023-03-21T06:34:35.314Z,11.16
2023-03-21T06:37:04.124Z,11.20
2023-03-21T06:39:33.202Z,11.35
2023-03-21T06:42:01.419Z,11.52
2023-03-21T06:44:29.472Z,11.57
2023-03-21T06:46:56.914Z,11.70
2023-03-21T06:49:26.906Z,11.76
2023-03-21T06:51:54.244Z,11.88
2023-03-21T06:54:22.159Z,11.85
2023-03-21T06:56:49.585Z,11.83
2023-03-21T06:59:17.529Z,11.76
2023-03-21T07:01:44.960Z,11.75
2023-03-21T07:04:12.791Z,11.56
2023-03-21T07:06:40.113Z,11.80
2023-03-21T07:09:07.724Z,11.86
2023-03-21T07:11:37.039Z,11.91
2023-03-21T07:14:05.045Z,11.75
2023-03-21T07:16:32.881Z,11.70
2023-03-21T07:19:00.834Z,11.53
2023-03-21T07:21:28.228Z,11.40
2023-03-21T07:23:55.728Z,11.34
2023-03-21T07:26:22.989Z,11.26
2023-03-21T07:28:50.671Z,11.25
2023-03-21T07:31:19.578Z,11.25
2023-03-21T07:33:47.248Z,11.33
2023-03-21T07:36:16.311Z,11.34
2023-03-21T07:38:46.069Z,11.36
2023-03-21T07:43:46.795Z,11.58
2023-03-21T07:46:14.232Z,11.84
2023-03-21T07:48:42.092Z,11.89
2023-03-21T07:51:09.716Z,11.85
2023-03-21T07:53:37.412Z,11.85
2023-03-21T07:56:05.773Z,11.69
2023-03-21T07:58:34.458Z,11.68
2023-03-21T08:01:02.425Z,11.55
2023-03-21T08:03:32.792Z,11.91
2023-03-21T08:06:03.934Z,12.16
2023-03-21T08:08:31.554Z,12.25
2023-03-21T08:10:58.889Z,12.30
2023-03-21T08:13:26.724Z,12.21
2023-03-21T08:15:54.184Z,12.14
2023-03-21T08:18:22.182Z,12.20
2023-03-21T08:20:57.745Z,12.21
2023-03-21T08:23:26.016Z,12.21
2023-03-21T08:25:55.938Z,12.12
2023-03-21T08:28:25.099Z,11.96
2023-03-21T08:30:52.473Z,12.16
2023-03-21T08:33:20.943Z,12.38
2023-03-21T08:35:48.472Z,12.60
2023-03-21T08:38:17.066Z,12.66
2023-03-21T08:40:44.377Z,12.74
2023-03-21T08:43:14.657Z,12.72
2023-03-21T08:45:42.296Z,12.96
2023-03-21T08:48:09.887Z,13.13
2023-03-21T08:50:37.474Z,13.16
2023-03-21T08:53:05.114Z,13.14
2023-03-21T08:55:33.253Z,13.35
2023-03-21T08:58:02.124Z,13.45
2023-03-21T09:00:29.940Z,13.48
2023-03-21T09:02:58.953Z,13.70
2023-03-21T09:05:27.244Z,13.89
2023-03-21T09:07:55.088Z,14.06
2023-03-21T09:10:24.382Z,15.04
2023-03-21T09:12:54.801Z,15.09
2023-03-21T09:15:28.971Z,14.86
2023-03-21T09:17:58.813Z,14.19
2023-03-21T09:20:31.362Z,13.79
2023-03-21T09:23:02.035Z,13.76
2023-03-21T09:25:32.721Z,13.74
2023-03-21T09:28:05.300Z,13.83
2023-03-21T09:30:36.693Z,13.80
2023-03-21T09:33:09.779Z,13.81
2023-03-21T09:35:37.709Z,13.78
2023-03-21T09:38:05.761Z,13.84
2023-03-21T09:41:09.397Z,14.14
2023-03-21T09:44:12.134Z,14.42
2023-03-21T09:47:03.926Z,14.09
2023-03-21T09:49:42.200Z,14.05
2023-03-21T09:52:23.962Z,14.10
2023-03-21T09:54:55.734Z,13.95
2023-03-21T09:57:41.908Z,13.80
2023-03-21T10:04:29.092Z,13.64
2023-03-21T10:07:02.271Z,13.63
2023-03-21T10:09:32.680Z,13.76
2023-03-21T10:12:30.685Z,13.92
2023-03-21T10:15:02.092Z,14.05
2023-03-21T10:17:43.584Z,14.11
2023-03-21T10:20:18.443Z,14.07
2023-03-21T10:22:48.957Z,13.80
2023-03-21T10:25:22.427Z,13.98
2023-03-21T10:27:52.790Z,14.28
2023-03-21T10:34:47.043Z,14.23
2023-03-21T10:37:16.929Z,14.11
2023-03-21T10:39:50.848Z,13.96
2023-03-21T10:42:32.884Z,14.16
2023-03-21T10:45:00.331Z,14.19
2023-03-21T10:47:34.024Z,14.46
2023-03-21T10:50:16.214Z,14.52
2023-03-21T10:53:00.796Z,14.61
2023-03-21T10:55:34.735Z,14.54
2023-03-21T10:58:19.064Z,14.38
2023-03-21T11:00:48.199Z,14.35
2023-03-21T11:03:32.385Z,14.32
2023-03-21T11:06:11.526Z,14.40
2023-03-21T11:09:16.934Z,14.78
2023-03-21T11:12:13.345Z,14.99
2023-03-21T11:14:46.832Z,14.95
2023-03-21T11:17:17.089Z,15.21
2023-03-21T11:20:06.080Z,15.61
2023-03-21T11:22:43.601Z,16.22
2023-03-21T11:25:32.907Z,16.77
2023-03-21T11:28:09.413Z,18.74
2023-03-21T11:30:37.056Z,19.61
2023-03-21T11:33:07.048Z,19.11
2023-03-21T11:35:39.388Z,18.68
2023-03-21T11:38:26.416Z,18.43
2023-03-21T11:41:01.018Z,18.04
2023-03-21T11:43:40.060Z,17.68
2023-03-21T11:46:14.898Z,17.53
2023-03-21T11:48:50.443Z,17.00
2023-03-21T11:51:41.265Z,16.16
2023-03-21T11:54:14.500Z,16.08
2023-03-21T11:56:51.037Z,15.75
2023-03-21T11:59:43.171Z,15.68
2023-03-21T12:02:55.418Z,15.35
2023-03-21T12:06:00.404Z,15.13
2023-03-21T12:09:16.252Z,14.85
2023-03-21T12:12:30.005Z,14.89
2023-03-21T12:15:27.141Z,14.94
2023-03-21T12:18:16.137Z,14.85
2023-03-21T12:20:53.747Z,14.74
2023-03-21T12:24:05.950Z,14.39
2023-03-21T12:27:02.730Z,14.30
2023-03-21T12:29:30.218Z,14.22
2023-03-21T12:32:06.693Z,13.97
2023-03-21T12:35:00.288Z,14.02
2023-03-21T12:37:39.361Z,13.88
2023-03-21T12:40:39.671Z,13.91
2023-03-21T12:43:36.861Z,14.00
2023-03-21T12:46:26.737Z,13.93
2023-03-21T12:49:07.870Z,13.91
2023-03-21T12:51:44.819Z,13.89
2023-03-21T12:54:46.903Z,14.10
2023-03-21T12:57:35.621Z,13.98
2023-03-21T13:00:17.686Z,14.15
2023-03-21T13:02:57.617Z,14.03
2023-03-21T13:05:41.204Z,14.07
2023-03-21T13:08:26.424Z,14.04
2023-03-21T13:10:57.518Z,13.89
2023-03-21T13:13:59.446Z,13.89
2023-03-21T13:16:45.214Z,14.03
2023-03-21T13:19:47.788Z,14.12
2023-03-21T13:22:29.070Z,14.27
2023-03-21T13:25:23.138Z,14.53
2023-03-21T13:28:01.776Z,14.28
2023-03-21T13:30:34.022Z,14.46
2023-03-21T13:33:21.784Z,14.48
2023-03-21T13:36:05.666Z,14.67
2023-03-21T13:38:40.152Z,14.79
2023-03-21T13:41:16.983Z,14.91
2023-03-21T13:44:05.997Z,15.07
2023-03-21T13:46:54.206Z,15.10
2023-03-21T13:49:41.682Z,15.34
2023-03-21T13:52:29.277Z,15.57
2023-03-21T13:54:58.247Z,15.75
2023-03-21T13:57:30.516Z,15.79
2023-03-21T14:00:29.538Z,15.67
2023-03-21T14:03:17.649Z,15.56
2023-03-21T14:09:38.258Z,15.97
2023-03-21T14:12:14.325Z,16.21
2023-03-21T14:14:48.972Z,16.28
2023-03-21T14:17:33.025Z,16.45
2023-03-21T14:20:18.475Z,16.42
2023-03-21T14:22:48.820Z,16.64
2023-03-21T14:25:21.232Z,16.49
2023-03-21T14:27:57.188Z,16.12
2023-03-21T14:30:34.895Z,15.88
2023-03-21T14:33:24.045Z,15.79
2023-03-21T14:35:53.066Z,15.76
2023-03-21T14:38:34.740Z,15.48
2023-03-21T14:41:02.660Z,15.20
2023-03-21T14:43:34.079Z,15.03
2023-03-21T14:46:02.005Z,14.84
2023-03-21T14:48:35.510Z,14.62
2023-03-21T14:51:09.663Z,14.42
2023-03-21T14:53:42.658Z,14.33
2023-03-21T14:56:26.064Z,14.17
2023-03-21T14:58:55.051Z,14.13
2023-03-21T15:01:34.837Z,13.96
2023-03-21T15:04:07.634Z,13.79
2023-03-21T15:06:52.247Z,13.71
2023-03-21T15:09:22.954Z,13.74
2023-03-21T15:11:53.332Z,13.67
2023-03-21T15:14:36.826Z,13.63
2023-03-21T15:17:08.467Z,13.66
2023-03-21T15:19:43.774Z,13.57
2023-03-21T15:22:43.498Z,13.54
2023-03-21T15:25:20.184Z,13.40
2023-03-21T15:27:51.075Z,13.44
2023-03-21T15:30:30.456Z,13.43
2023-03-21T15:33:07.745Z,13.31
2023-03-21T15:35:46.202Z,13.21
2023-03-21T15:38:24.191Z,13.17
2023-03-21T15:40:52.253Z,13.16
2023-03-21T15:43:20.468Z,13.01
2023-03-21T15:45:54.428Z,12.90
2023-03-21T15:48:29.680Z,12.92
2023-03-21T15:51:23.787Z,12.87
2023-03-21T15:53:56.651Z,12.90
2023-03-21T15:56:25.211Z,12.90
2023-03-21T15:58:53.488Z,12.86
2023-03-21T16:01:26.466Z,12.91
2023-03-21T16:04:13.369Z,12.87
2023-03-21T16:06:53.770Z,12.82
2023-03-21T16:09:23.813Z,12.77
2023-03-21T16:11:59.817Z,12.79
2023-03-21T16:18:29.559Z,12.74
2023-03-21T16:20:59.333Z,12.71
2023-03-21T16:23:27.129Z,12.71
2023-03-21T16:25:58.289Z,12.72
2023-03-21T16:28:25.737Z,12.70
2023-03-21T16:30:53.334Z,12.72
2023-03-21T16:33:21.975Z,12.73
2023-03-21T16:35:49.608Z,12.78
2023-03-21T16:38:16.908Z,12.73
2023-03-21T16:40:45.096Z,12.73
2023-03-21T16:43:12.631Z,12.70
2023-03-21T16:45:40.535Z,12.69
2023-03-21T16:48:09.134Z,12.71
2023-03-21T16:50:47.558Z,12.71
2023-03-21T16:53:14.970Z,12.75
2023-03-21T16:55:42.743Z,12.75
2023-03-21T16:58:15.710Z,12.73
2023-03-21T17:00:43.584Z,12.72
2023-03-21T17:03:21.677Z,12.69
2023-03-21T17:05:49.623Z,12.68
2023-03-21T17:08:19.928Z,12.64
2023-03-21T17:10:47.663Z,12.64
2023-03-21T17:13:15.012Z,12.62
2023-03-21T17:15:42.675Z,12.59
2023-03-21T17:18:12.373Z,12.54
2023-03-21T17:20:41.855Z,12.52
2023-03-21T17:23:10.361Z,12.48
2023-03-21T17:25:38.942Z,12.47
2023-03-21T17:28:06.356Z,12.44
2023-03-21T17:30:36.936Z,12.43
2023-03-21T17:33:04.437Z,12.41
2023-03-21T17:35:32.409Z,12.38
2023-03-21T17:37:59.872Z,12.35
2023-03-21T17:40:32.081Z,12.33
2023-03-21T17:43:02.620Z,12.29
2023-03-21T17:45:30.569Z,12.26
2023-03-21T17:47:58.133Z,12.27
2023-03-21T17:50:31.466Z,12.27
2023-03-21T17:52:58.916Z,12.28
2023-03-21T17:55:26.725Z,12.24
2023-03-21T17:57:54.100Z,12.20
2023-03-21T18:00:26.739Z,12.21
2023-03-21T18:02:54.851Z,12.16
2023-03-21T18:05:24.981Z,12.14
2023-03-21T18:08:11.321Z,12.11
2023-03-21T18:10:42.146Z,12.12
2023-03-21T18:13:10.123Z,12.13
2023-03-21T18:15:38.535Z,12.06
2023-03-21T18:18:06.029Z,12.07
2023-03-21T18:21:03.984Z,12.04
2023-03-21T18:23:21.609Z,12.01
2023-03-21T18:25:50.026Z,11.98
2023-03-21T18:28:20.488Z,11.92
2023-03-21T18:31:09.442Z,11.88
2023-03-21T18:33:41.769Z,11.81
2023-03-21T18:36:14.106Z,11.82
2023-03-21T18:38:42.996Z,11.81
2023-03-21T18:41:12.151Z,11.83
2023-03-21T18:46:27.462Z,11.88
2023-03-21T18:48:55.259Z,11.89
2023-03-21T18:51:23.197Z,11.87
2023-03-21T18:53:50.752Z,11.88
2023-03-21T18:57:05.698Z,11.90
2023-03-21T18:59:07.565Z,11.90
2023-03-21T19:01:35.997Z,11.92
2023-03-21T19:04:20.704Z,11.93
2023-03-21T19:06:50.360Z,11.93
2023-03-21T19:09:19.234Z,11.89
2023-03-21T19:11:47.966Z,11.88
2023-03-21T19:14:18.731Z,11.83
2023-03-21T19:17:34.302Z,11.70
2023-03-21T19:19:35.055Z,11.62
2023-03-21T19:22:04.364Z,11.60
2023-03-21T19:24:32.738Z,11.62
2023-03-21T19:27:00.506Z,11.60
2023-03-21T19:29:28.856Z,11.57
2023-03-21T19:31:56.880Z,11.64
2023-03-21T19:34:24.224Z,11.68
2023-03-21T19:36:52.638Z,11.61
2023-03-21T19:39:22.798Z,11.60
2023-03-21T19:41:55.226Z,11.58
2023-03-21T19:44:29.485Z,11.59
2023-03-21T19:46:57.037Z,11.62
2023-03-21T19:49:34.698Z,11.63
2023-03-21T19:52:13.451Z,11.61
2023-03-21T19:54:40.802Z,11.62
2023-03-21T19:57:09.877Z,11.60
2023-03-21T19:59:37.831Z,11.59
2023-03-21T20:02:31.196Z,11.59
2023-03-21T20:04:53.481Z,11.60
2023-03-21T20:07:21.072Z,11.55
2023-03-21T20:09:52.541Z,11.56
2023-03-21T20:12:23.105Z,11.58
2023-03-21T20:14:58.060Z,11.55
2023-03-21T20:17:33.025Z,11.52
2023-03-21T20:20:00.340Z,11.51
2023-03-21T20:22:53.594Z,11.52
2023-03-21T20:25:16.142Z,11.50
2023-03-21T20:27:44.966Z,11.49
2023-03-21T20:30:17.119Z,11.50
2023-03-21T20:32:47.137Z,11.51
2023-03-21T20:35:29.623Z,11.51
2023-03-21T20:38:04.253Z,11.50
2023-03-21T20:40:31.601Z,11.50
2023-03-21T20:43:03.062Z,11.51
2023-03-21T20:45:43.730Z,11.49
2023-03-21T20:48:11.378Z,11.47
2023-03-21T20:50:39.580Z,11.45
2023-03-21T20:53:08.856Z,11.44
2023-03-21T20:55:37.409Z,11.47
2023-03-21T20:58:26.710Z,11.48
2023-03-21T21:00:52.454Z,11.49
2023-03-21T21:03:21.054Z,11.50
2023-03-21T21:05:48.457Z,11.49
2023-03-21T21:08:19.257Z,11.47
2023-03-21T21:11:27.075Z,11.47
2023-03-21T21:13:37.610Z,11.43
2023-03-21T21:16:07.505Z,11.37
2023-03-21T21:18:36.692Z,11.33
2023-03-21T21:21:06.610Z,11.29
2023-03-21T21:23:37.395Z,11.26
2023-03-21T21:26:07.806Z,11.23
2023-03-21T21:28:38.560Z,11.21
2023-03-21T21:31:14.710Z,11.18
2023-03-21T21:33:43.029Z,11.17
2023-03-21T21:36:13.048Z,11.15
2023-03-21T21:38:41.348Z,11.16
2023-03-21T21:41:17.272Z,11.14
2023-03-21T21:43:45.552Z,11.16
2023-03-21T21:46:13.694Z,11.14
2023-03-21T21:48:42.550Z,11.16
2023-03-21T21:51:10.636Z,11.12
2023-03-21T21:53:38.997Z,11.09
2023-03-21T21:56:06.984Z,11.04
2023-03-21T21:58:38.703Z,11.00
2023-03-21T22:01:07.265Z,10.96
2023-03-21T22:03:41.193Z,10.91
2023-03-21T22:06:10.243Z,10.86
2023-03-21T22:08:38.496Z,10.87
2023-03-21T22:11:06.803Z,10.82
2023-03-21T22:13:34.498Z,10.74
2023-03-21T22:16:01.968Z,10.74
2023-03-21T22:18:29.750Z,10.71
2023-03-21T22:20:57.132Z,10.72
2023-03-21T22:23:26.169Z,10.73
2023-03-21T22:25:54.568Z,10.76
2023-03-21T22:28:25.651Z,10.74
2023-03-21T22:30:56.221Z,10.77
2023-03-21T22:33:24.280Z,10.76
2023-03-21T22:35:53.000Z,10.75
2023-03-21T22:38:24.342Z,10.76
2023-03-21T22:41:00.300Z,10.74
2023-03-21T22:43:29.350Z,10.77
2023-03-21T22:45:56.730Z,10.75
2023-03-21T22:48:24.369Z,10.52
2023-03-21T22:50:51.676Z,10.59
2023-03-21T22:53:19.379Z,10.57
2023-03-21T22:55:46.820Z,10.52
2023-03-21T22:58:14.462Z,10.33
2023-03-21T23:00:41.835Z,10.25
2023-03-21T23:03:09.499Z,10.22
2023-03-21T23:05:42.173Z,10.24
2023-03-21T23:08:10.989Z,9.99
2023-03-21T23:10:41.126Z,9.91
2023-03-21T23:13:09.179Z,9.95
2023-03-21T23:15:38.763Z,9.93
2023-03-21T23:18:07.082Z,9.96
2023-03-21T23:20:34.318Z,9.93
2023-03-21T23:23:02.402Z,9.86
2023-03-21T23:25:30.549Z,9.91
2023-03-21T23:27:58.224Z,9.91
2023-03-21T23:30:26.486Z,9.91
2023-03-21T23:32:54.026Z,9.89
2023-03-21T23:35:21.454Z,9.86
2023-03-21T23:37:52.786Z,9.84
2023-03-21T23:40:21.318Z,9.77
2023-03-21T23:42:48.993Z,9.64
2023-03-21T23:45:16.388Z,9.68
2023-03-21T23:47:44.091Z,9.68
2023-03-21T23:50:11.628Z,9.68
2023-03-21T23:52:41.682Z,9.67
2023-03-21T23:55:09.709Z,9.64
2023-03-21T23:57:41.783Z,9.58
